createdAt,value
2018-06-07T00:01:34.594Z,955.53
2018-06-07T00:04:00.894Z,955.53
2018-06-07T00:06:27.204Z,955.49
2018-06-07T00:08:53.498Z,955.51
2018-06-07T00:11:19.790Z,955.45
2018-06-07T00:13:46.086Z,955.51
2018-06-07T00:16:12.380Z,955.61
2018-06-07T00:18:38.670Z,955.57
2018-06-07T00:21:04.963Z,955.48
2018-06-07T00:23:31.322Z,955.46
2018-06-07T00:25:57.635Z,955.39
2018-06-07T00:28:23.900Z,955.47
2018-06-07T00:30:50.199Z,955.53
2018-06-07T00:33:16.490Z,955.51
2018-06-07T00:35:42.786Z,955.53
2018-06-07T00:38:09.102Z,955.55
2018-06-07T00:40:35.411Z,955.53
2018-06-07T00:43:01.706Z,955.59
2018-06-07T00:45:28.009Z,955.59
2018-06-07T00:47:54.310Z,955.55
2018-06-07T00:50:20.606Z,955.53
2018-06-07T00:52:46.896Z,955.53
2018-06-07T00:55:13.188Z,955.54
2018-06-07T00:57:39.500Z,955.53
2018-06-07T01:00:05.790Z,955.50
2018-06-07T01:02:32.089Z,955.50
2018-06-07T01:04:58.381Z,955.57
2018-06-07T01:07:24.673Z,955.63
2018-06-07T01:09:50.974Z,955.59
2018-06-07T01:12:17.262Z,955.57
2018-06-07T01:14:43.561Z,955.61
2018-06-07T01:17:09.858Z,955.62
2018-06-07T01:19:36.170Z,955.60
2018-06-07T01:22:02.465Z,955.56
2018-06-07T01:24:28.766Z,955.55
2018-06-07T01:26:55.051Z,955.52
2018-06-07T01:29:21.421Z,955.51
2018-06-07T01:31:47.710Z,955.54
2018-06-07T01:34:14.008Z,955.54
2018-06-07T01:36:40.314Z,955.53
2018-06-07T01:39:06.611Z,955.50
2018-06-07T01:41:32.914Z,955.49
2018-06-07T01:43:59.202Z,955.49
2018-06-07T01:46:25.494Z,955.58
2018-06-07T01:48:51.785Z,955.58
2018-06-07T01:51:18.092Z,955.54
2018-06-07T01:53:44.387Z,955.66
2018-06-07T01:56:10.679Z,955.57
2018-06-07T01:58:36.967Z,955.58
2018-06-07T02:01:03.319Z,955.64
2018-06-07T02:03:29.610Z,955.63
2018-06-07T02:05:55.918Z,955.69
2018-06-07T02:08:22.234Z,955.68
2018-06-07T02:10:48.523Z,955.71
2018-06-07T02:13:14.830Z,955.70
2018-06-07T02:15:41.143Z,955.72
2018-06-07T02:18:07.443Z,955.66
2018-06-07T02:20:33.740Z,955.79
2018-06-07T02:23:00.036Z,955.79
2018-06-07T02:25:26.334Z,955.78
2018-06-07T02:27:52.626Z,955.81
2018-06-07T02:30:18.915Z,955.80
2018-06-07T02:32:45.213Z,955.87
2018-06-07T02:35:11.514Z,955.94
2018-06-07T02:37:37.814Z,955.90
2018-06-07T02:40:04.123Z,955.94
2018-06-07T02:42:30.410Z,956.01
2018-06-07T02:44:56.719Z,956.02
2018-06-07T02:47:23.006Z,956.00
2018-06-07T02:49:49.346Z,955.97
2018-06-07T02:52:15.641Z,956.05
2018-06-07T02:54:42.000Z,956.05
2018-06-07T02:57:08.284Z,956.07
2018-06-07T02:59:34.574Z,956.06
2018-06-07T03:02:00.884Z,956.08
2018-06-07T03:04:27.171Z,956.12
2018-06-07T03:06:53.458Z,956.17
2018-06-07T03:09:19.754Z,956.12
2018-06-07T03:11:46.047Z,956.13
2018-06-07T03:14:12.350Z,956.22
2018-06-07T03:16:38.650Z,956.26
2018-06-07T03:19:04.954Z,956.31
2018-06-07T03:21:31.250Z,956.29
2018-06-07T03:23:57.595Z,956.30
2018-06-07T03:26:23.907Z,956.31
2018-06-07T03:28:50.207Z,956.32
2018-06-07T03:31:16.505Z,956.34
2018-06-07T03:33:42.800Z,956.44
2018-06-07T03:36:09.096Z,956.42
2018-06-07T03:38:35.394Z,956.39
2018-06-07T03:41:01.725Z,956.38
2018-06-07T03:43:28.028Z,956.37
2018-06-07T03:45:54.322Z,956.31
2018-06-07T03:48:20.617Z,956.46
2018-06-07T03:50:46.912Z,956.47
2018-06-07T03:53:13.224Z,956.57
2018-06-07T03:55:39.509Z,956.55
2018-06-07T03:58:05.830Z,956.60
2018-06-07T04:00:32.085Z,956.62
2018-06-07T04:02:58.374Z,956.64
2018-06-07T04:05:24.668Z,956.65
2018-06-07T04:07:50.954Z,956.62
2018-06-07T04:10:17.319Z,956.63
2018-06-07T04:12:43.601Z,956.60
2018-06-07T04:15:09.839Z,956.64
2018-06-07T04:17:36.323Z,956.61
2018-06-07T04:20:02.621Z,956.69
2018-06-07T04:22:28.913Z,956.70
2018-06-07T04:24:55.223Z,956.70
2018-06-07T04:27:21.561Z,956.72
2018-06-07T04:29:47.853Z,956.71
2018-06-07T04:32:14.154Z,956.81
2018-06-07T04:34:40.490Z,956.72
2018-06-07T04:37:06.784Z,956.73
2018-06-07T04:39:33.136Z,956.80
2018-06-07T04:41:59.438Z,956.81
2018-06-07T04:44:25.732Z,956.75
2018-06-07T04:46:52.027Z,956.83
2018-06-07T04:49:18.350Z,956.80
2018-06-07T04:51:44.654Z,956.81
2018-06-07T04:54:10.949Z,956.85
2018-06-07T04:56:37.251Z,956.90
2018-06-07T04:59:03.553Z,956.94
2018-06-07T05:01:29.841Z,956.90
2018-06-07T05:03:56.154Z,956.91
2018-06-07T05:06:22.446Z,956.95
2018-06-07T05:08:48.743Z,956.99
2018-06-07T05:11:15.044Z,956.97
2018-06-07T05:13:41.110Z,956.94
2018-06-07T05:16:07.471Z,956.95
2018-06-07T05:18:33.762Z,956.99
2018-06-07T05:21:00.047Z,957.05
2018-06-07T05:23:26.360Z,957.05
2018-06-07T05:25:52.654Z,957.10
2018-06-07T05:28:18.954Z,957.08
2018-06-07T05:30:45.245Z,957.05
2018-06-07T05:33:11.545Z,957.13
2018-06-07T05:35:37.889Z,957.13
2018-06-07T05:38:04.225Z,957.10
2018-06-07T05:40:30.516Z,957.11
2018-06-07T05:42:56.807Z,957.15
2018-06-07T05:45:23.095Z,957.18
2018-06-07T05:47:49.388Z,957.15
2018-06-07T05:50:15.684Z,957.16
2018-06-07T05:52:41.975Z,957.12
2018-06-07T05:55:08.263Z,957.09
2018-06-07T05:57:34.568Z,957.12
2018-06-07T06:00:00.858Z,957.21
2018-06-07T06:02:27.176Z,957.17
2018-06-07T06:04:53.433Z,957.13
2018-06-07T06:07:19.728Z,957.17
2018-06-07T06:09:46.033Z,957.11
2018-06-07T06:12:12.413Z,957.20
2018-06-07T06:14:38.656Z,957.18
2018-06-07T06:17:04.954Z,957.19
2018-06-07T06:19:31.266Z,957.19
2018-06-07T06:21:57.554Z,957.23
2018-06-07T06:24:23.854Z,957.18
2018-06-07T06:26:50.176Z,957.28
2018-06-07T06:29:16.464Z,957.22
2018-06-07T06:31:42.768Z,957.26
2018-06-07T06:34:09.060Z,957.25
2018-06-07T06:36:35.360Z,957.20
2018-06-07T06:39:01.672Z,957.25
2018-06-07T06:41:27.956Z,957.16
2018-06-07T06:43:54.255Z,957.18
2018-06-07T06:46:20.557Z,957.14
2018-06-07T06:48:46.847Z,957.15
2018-06-07T06:51:13.134Z,957.16
2018-06-07T06:53:39.445Z,957.14
2018-06-07T06:56:05.754Z,957.16
2018-06-07T06:58:32.096Z,957.11
2018-06-07T07:00:58.404Z,957.18
2018-06-07T07:03:24.715Z,957.14
2018-06-07T07:05:50.995Z,957.12
2018-06-07T07:08:17.367Z,957.11
2018-06-07T07:10:43.666Z,957.17
2018-06-07T07:13:09.995Z,957.16
2018-06-07T07:15:36.291Z,957.11
2018-06-07T07:18:02.585Z,957.03
2018-06-07T07:20:28.872Z,957.11
2018-06-07T07:22:55.209Z,957.11
2018-06-07T07:25:21.505Z,957.07
2018-06-07T07:27:47.839Z,957.02
2018-06-07T07:30:14.131Z,957.09
2018-06-07T07:32:40.467Z,957.02
2018-06-07T07:35:06.766Z,957.10
2018-06-07T07:37:33.063Z,957.10
2018-06-07T07:39:59.354Z,957.08
2018-06-07T07:42:25.690Z,957.09
2018-06-07T07:44:51.981Z,957.13
2018-06-07T07:47:18.322Z,957.06
2018-06-07T07:49:44.615Z,957.06
2018-06-07T07:52:10.934Z,957.07
2018-06-07T07:54:37.235Z,957.15
2018-06-07T07:57:03.529Z,957.05
2018-06-07T07:59:29.824Z,957.12
2018-06-07T08:01:56.121Z,957.08
2018-06-07T08:04:22.425Z,957.12
2018-06-07T08:06:48.748Z,957.09
2018-06-07T08:09:15.038Z,957.08
2018-06-07T08:11:41.348Z,957.15
2018-06-07T08:14:07.654Z,957.07
2018-06-07T08:16:33.948Z,957.13
2018-06-07T08:19:00.281Z,957.11
2018-06-07T08:21:26.581Z,957.07
2018-06-07T08:23:52.886Z,957.00
2018-06-07T08:26:19.183Z,957.06
2018-06-07T08:28:45.495Z,957.08
2018-06-07T08:31:11.785Z,957.02
2018-06-07T08:33:38.077Z,957.04
2018-06-07T08:36:04.380Z,957.08
2018-06-07T08:38:30.666Z,956.96
2018-06-07T08:40:56.961Z,957.01
2018-06-07T08:43:23.267Z,956.95
2018-06-07T08:45:49.571Z,956.87
2018-06-07T08:48:15.863Z,956.82
2018-06-07T08:50:42.178Z,956.82
2018-06-07T08:53:08.482Z,956.85
2018-06-07T08:55:34.781Z,956.81
2018-06-07T08:58:01.080Z,956.75
2018-06-07T09:00:27.539Z,956.64
2018-06-07T09:02:53.664Z,956.68
2018-06-07T09:05:19.962Z,956.71
2018-06-07T09:07:46.258Z,956.73
2018-06-07T09:10:12.551Z,956.70
2018-06-07T09:12:38.844Z,956.73
2018-06-07T09:15:05.145Z,956.64
2018-06-07T09:17:31.437Z,956.65
2018-06-07T09:19:57.767Z,956.62
2018-06-07T09:22:24.104Z,956.58
2018-06-07T09:24:50.359Z,956.63
2018-06-07T09:27:16.688Z,956.56
2018-06-07T09:29:42.992Z,956.60
2018-06-07T09:32:09.288Z,956.60
2018-06-07T09:34:35.586Z,956.55
2018-06-07T09:37:01.880Z,956.48
2018-06-07T09:39:28.183Z,956.45
2018-06-07T09:41:54.484Z,956.44
2018-06-07T09:44:20.838Z,956.57
2018-06-07T09:46:47.146Z,956.51
2018-06-07T09:49:13.445Z,956.44
2018-06-07T09:51:39.755Z,956.32
2018-06-07T09:54:06.050Z,956.39
2018-06-07T09:56:32.338Z,956.25
2018-06-07T09:58:58.637Z,956.18
2018-06-07T10:01:24.967Z,956.19
2018-06-07T10:03:51.306Z,956.16
2018-06-07T10:06:17.615Z,956.17
2018-06-07T10:08:43.896Z,956.13
2018-06-07T10:11:10.193Z,956.14
2018-06-07T10:13:36.490Z,956.08
2018-06-07T10:16:02.798Z,956.03
2018-06-07T10:18:29.096Z,956.04
2018-06-07T10:20:55.398Z,956.02
2018-06-07T10:23:21.688Z,956.08
2018-06-07T10:25:47.980Z,956.09
2018-06-07T10:28:14.354Z,956.10
2018-06-07T10:30:40.614Z,956.05
2018-06-07T10:33:06.908Z,956.01
2018-06-07T10:35:33.284Z,956.08
2018-06-07T10:37:59.521Z,955.95
2018-06-07T10:40:25.814Z,956.03
2018-06-07T10:42:52.104Z,955.91
2018-06-07T10:45:18.401Z,955.92
2018-06-07T10:47:44.743Z,955.93
2018-06-07T10:50:11.076Z,955.94
2018-06-07T10:52:37.381Z,956.01
2018-06-07T10:55:03.675Z,956.05
2018-06-07T10:57:29.988Z,955.98
2018-06-07T10:59:56.272Z,955.95
2018-06-07T11:02:22.555Z,955.95
2018-06-07T11:04:48.847Z,956.06
2018-06-07T11:07:15.138Z,956.03
2018-06-07T11:09:41.423Z,955.97
2018-06-07T11:12:07.712Z,955.94
2018-06-07T11:14:34.025Z,955.86
2018-06-07T11:17:00.306Z,955.77
2018-06-07T11:19:26.633Z,955.80
2018-06-07T11:21:52.929Z,955.81
2018-06-07T11:24:19.230Z,955.83
2018-06-07T11:26:45.526Z,955.76
2018-06-07T11:29:11.822Z,955.69
2018-06-07T11:31:38.117Z,955.62
2018-06-07T11:34:04.410Z,955.71
2018-06-07T11:36:30.705Z,955.70
2018-06-07T11:38:57.024Z,955.56
2018-06-07T11:41:23.320Z,955.64
2018-06-07T11:43:49.651Z,955.71
2018-06-07T11:46:15.967Z,955.63
2018-06-07T11:48:42.347Z,955.67
2018-06-07T11:51:08.615Z,955.61
2018-06-07T11:53:34.900Z,955.69
2018-06-07T11:56:01.198Z,955.74
2018-06-07T11:58:27.593Z,955.77
2018-06-07T12:00:53.895Z,955.79
2018-06-07T12:03:20.192Z,955.81
2018-06-07T12:05:46.520Z,955.77
2018-06-07T12:08:12.872Z,955.61
2018-06-07T12:10:39.158Z,955.75
2018-06-07T12:13:05.470Z,955.78
2018-06-07T12:15:31.762Z,955.86
2018-06-07T12:17:58.058Z,955.72
2018-06-07T12:20:24.405Z,955.76
2018-06-07T12:22:50.766Z,955.70
2018-06-07T12:25:17.130Z,955.81
2018-06-07T12:27:43.350Z,955.86
2018-06-07T12:30:09.697Z,955.95
2018-06-07T12:32:36.032Z,956.38
2018-06-07T12:35:02.338Z,956.29
2018-06-07T12:37:28.733Z,956.29
2018-06-07T12:39:55.136Z,956.23
2018-06-07T12:42:21.345Z,956.27
2018-06-07T12:44:47.687Z,956.13
2018-06-07T12:47:13.980Z,956.22
2018-06-07T12:49:40.278Z,956.22
2018-06-07T12:52:06.590Z,956.20
2018-06-07T12:54:32.907Z,956.30
2018-06-07T12:56:59.209Z,956.49
2018-06-07T12:59:25.546Z,956.77
2018-06-07T13:01:51.909Z,956.86
2018-06-07T13:04:18.213Z,956.76
2018-06-07T13:06:44.523Z,956.68
2018-06-07T13:09:10.893Z,956.73
2018-06-07T13:11:37.140Z,956.68
2018-06-07T13:14:03.532Z,957.04
2018-06-07T13:16:29.823Z,957.20
2018-06-07T13:18:56.167Z,956.74
2018-06-07T13:21:22.470Z,956.78
2018-06-07T13:23:48.809Z,956.95
2018-06-07T13:26:15.150Z,956.88
2018-06-07T13:28:41.526Z,956.86
2018-06-07T13:31:07.774Z,956.81
2018-06-07T13:33:34.064Z,956.95
2018-06-07T13:36:00.378Z,956.81
2018-06-07T13:38:26.679Z,956.89
2018-06-07T13:40:53.002Z,956.66
2018-06-07T13:43:19.397Z,956.75
2018-06-07T13:45:45.710Z,956.76
2018-06-07T13:48:12.015Z,956.74
2018-06-07T13:50:38.345Z,956.68
2018-06-07T13:53:04.617Z,956.73
2018-06-07T13:55:34.071Z,956.61
2018-06-07T13:58:00.475Z,956.74
2018-06-07T14:00:26.713Z,956.63
2018-06-07T14:02:53.012Z,956.54
2018-06-07T14:05:19.303Z,956.53
2018-06-07T14:07:45.593Z,956.62
2018-06-07T14:10:11.898Z,956.55
2018-06-07T14:12:38.192Z,956.64
2018-06-07T14:15:04.479Z,956.70
2018-06-07T14:17:30.859Z,956.60
2018-06-07T14:19:57.111Z,956.67
2018-06-07T14:22:23.404Z,956.53
2018-06-07T14:24:49.721Z,956.56
2018-06-07T14:27:16.047Z,956.56
2018-06-07T14:29:42.447Z,956.54
2018-06-07T14:32:08.737Z,956.58
2018-06-07T14:34:35.074Z,956.50
2018-06-07T14:37:01.376Z,956.57
2018-06-07T14:39:27.721Z,956.63
2018-06-07T14:41:54.013Z,956.58
2018-06-07T14:44:20.301Z,956.53
2018-06-07T14:46:46.654Z,956.62
2018-06-07T14:49:12.944Z,956.55
2018-06-07T14:51:39.273Z,956.68
2018-06-07T14:54:05.559Z,956.53
2018-06-07T14:56:31.862Z,956.53
2018-06-07T14:58:58.148Z,956.53
2018-06-07T15:01:24.481Z,956.52
2018-06-07T15:03:50.775Z,956.51
2018-06-07T15:06:17.065Z,956.52
2018-06-07T15:08:43.387Z,956.39
2018-06-07T15:11:09.685Z,956.40
2018-06-07T15:13:36.030Z,956.32
2018-06-07T15:16:02.328Z,956.31
2018-06-07T15:18:28.621Z,956.32
2018-06-07T15:20:54.913Z,956.26
2018-06-07T15:23:21.203Z,956.27
2018-06-07T15:25:47.494Z,956.19
2018-06-07T15:28:13.818Z,956.16
2018-06-07T15:30:40.118Z,956.18
2018-06-07T15:33:06.409Z,956.10
2018-06-07T15:35:32.700Z,956.12
2018-06-07T15:37:58.997Z,956.17
2018-06-07T15:40:25.291Z,956.13
2018-06-07T15:42:51.630Z,956.10
2018-06-07T15:45:17.931Z,956.15
2018-06-07T15:47:44.224Z,956.16
2018-06-07T15:50:10.520Z,956.19
2018-06-07T15:52:36.802Z,956.28
2018-06-07T15:55:03.100Z,956.32
2018-06-07T15:57:29.426Z,956.40
2018-06-07T15:59:55.688Z,956.38
2018-06-07T16:02:21.976Z,956.48
2018-06-07T16:04:48.272Z,956.59
2018-06-07T16:07:14.573Z,956.60
2018-06-07T16:09:40.853Z,956.61
2018-06-07T16:12:07.144Z,956.69
2018-06-07T16:14:33.439Z,956.66
2018-06-07T16:16:59.737Z,956.68
2018-06-07T16:19:26.033Z,956.69
2018-06-07T16:21:52.324Z,956.74
2018-06-07T16:24:18.660Z,956.74
2018-06-07T16:26:44.951Z,956.72
2018-06-07T16:29:11.245Z,956.65
2018-06-07T16:31:37.541Z,956.65
2018-06-07T16:34:03.878Z,956.63
2018-06-07T16:36:30.166Z,956.70
2018-06-07T16:38:56.497Z,956.72
2018-06-07T16:41:22.789Z,956.76
2018-06-07T16:43:49.090Z,956.69
2018-06-07T16:46:15.395Z,956.69
2018-06-07T16:48:41.686Z,956.69
2018-06-07T16:51:08.016Z,956.66
2018-06-07T16:53:34.314Z,956.71
2018-06-07T16:56:00.658Z,956.81
2018-06-07T16:58:26.948Z,956.75
2018-06-07T17:00:53.277Z,956.76
2018-06-07T17:03:19.602Z,956.82
2018-06-07T17:05:45.896Z,956.84
2018-06-07T17:08:12.188Z,956.82
2018-06-07T17:10:38.544Z,956.82
2018-06-07T17:13:04.828Z,956.81
2018-06-07T17:15:31.165Z,956.89
2018-06-07T17:17:57.454Z,956.88
2018-06-07T17:20:23.745Z,956.88
2018-06-07T17:22:50.111Z,956.90
2018-06-07T17:25:16.433Z,956.90
2018-06-07T17:27:42.775Z,956.89
2018-06-07T17:30:09.115Z,956.93
2018-06-07T17:32:35.415Z,956.86
2018-06-07T17:35:01.704Z,956.85
2018-06-07T17:37:27.990Z,956.92
2018-06-07T17:39:54.280Z,956.94
2018-06-07T17:42:20.620Z,956.88
2018-06-07T17:44:46.975Z,956.96
2018-06-07T17:47:13.262Z,956.94
2018-06-07T17:49:39.557Z,956.90
2018-06-07T17:52:05.854Z,956.96
2018-06-07T17:54:32.153Z,957.00
2018-06-07T17:56:58.472Z,957.03
2018-06-07T17:59:24.805Z,956.90
2018-06-07T18:01:51.089Z,956.98
2018-06-07T18:04:17.386Z,956.95
2018-06-07T18:06:43.722Z,957.00
2018-06-07T18:09:10.023Z,956.96
2018-06-07T18:11:36.316Z,956.93
2018-06-07T18:14:02.657Z,956.96
2018-06-07T18:16:28.962Z,956.92
2018-06-07T18:18:55.250Z,956.91
2018-06-07T18:21:21.540Z,956.88
2018-06-07T18:23:47.842Z,956.90
2018-06-07T18:26:14.189Z,956.87
2018-06-07T18:28:40.433Z,956.88
2018-06-07T18:31:06.723Z,956.94
2018-06-07T18:33:33.017Z,956.97
2018-06-07T18:35:59.314Z,957.01
2018-06-07T18:38:25.600Z,956.98
2018-06-07T18:40:51.891Z,957.02
2018-06-07T18:43:18.186Z,957.09
2018-06-07T18:45:44.493Z,957.08
2018-06-07T18:48:10.782Z,957.03
2018-06-07T18:50:37.069Z,957.08
2018-06-07T18:53:03.371Z,957.13
2018-06-07T18:55:29.663Z,957.11
2018-06-07T18:57:55.954Z,957.17
2018-06-07T19:00:22.243Z,957.21
2018-06-07T19:02:48.541Z,957.18
2018-06-07T19:05:14.832Z,957.18
2018-06-07T19:07:41.159Z,957.17
2018-06-07T19:10:07.452Z,957.23
2018-06-07T19:12:33.781Z,957.24
2018-06-07T19:15:00.113Z,957.23
2018-06-07T19:17:26.407Z,957.32
2018-06-07T19:19:52.750Z,957.26
2018-06-07T19:22:19.046Z,957.27
2018-06-07T19:24:45.428Z,957.32
2018-06-07T19:27:11.750Z,957.31
2018-06-07T19:29:38.055Z,957.46
2018-06-07T19:32:04.379Z,957.46
2018-06-07T19:34:30.676Z,957.52
2018-06-07T19:36:57.008Z,957.48
2018-06-07T19:39:23.255Z,957.54
2018-06-07T19:41:49.585Z,957.50
2018-06-07T19:44:15.946Z,957.51
2018-06-07T19:46:42.219Z,957.52
2018-06-07T19:49:08.512Z,957.57
2018-06-07T19:51:34.812Z,957.56
2018-06-07T19:54:01.104Z,957.59
2018-06-07T19:56:27.424Z,957.61
2018-06-07T19:58:53.718Z,957.56
2018-06-07T20:01:20.100Z,957.68
2018-06-07T20:03:46.486Z,957.66
2018-06-07T20:06:12.774Z,957.59
2018-06-07T20:08:39.160Z,957.68
2018-06-07T20:11:05.401Z,957.71
2018-06-07T20:13:31.701Z,957.81
2018-06-07T20:15:57.985Z,957.83
2018-06-07T20:18:24.324Z,957.87
2018-06-07T20:20:50.611Z,957.79
2018-06-07T20:23:16.934Z,957.77
2018-06-07T20:25:43.221Z,957.78
2018-06-07T20:28:09.503Z,957.71
2018-06-07T20:30:35.835Z,957.75
2018-06-07T20:33:02.174Z,957.79
2018-06-07T20:35:28.459Z,957.89
2018-06-07T20:37:54.753Z,957.82
2018-06-07T20:40:21.079Z,957.86
2018-06-07T20:42:47.370Z,957.90
2018-06-07T20:45:13.660Z,957.89
2018-06-07T20:47:40.004Z,957.88
2018-06-07T20:50:06.293Z,957.89
2018-06-07T20:52:32.592Z,957.87
2018-06-07T20:54:58.882Z,957.88
2018-06-07T20:57:25.166Z,957.93
2018-06-07T20:59:51.468Z,957.88
2018-06-07T21:02:17.782Z,957.95
2018-06-07T21:04:44.085Z,957.96
2018-06-07T21:07:10.385Z,957.87
2018-06-07T21:09:36.686Z,957.90
2018-06-07T21:12:02.999Z,957.86
2018-06-07T21:14:29.350Z,957.87
2018-06-07T21:16:55.667Z,957.94
2018-06-07T21:19:21.955Z,957.90
2018-06-07T21:21:48.247Z,957.94
2018-06-07T21:24:14.540Z,957.97
2018-06-07T21:26:40.833Z,957.94
2018-06-07T21:29:07.123Z,957.91
2018-06-07T21:31:33.419Z,957.99
2018-06-07T21:33:59.708Z,958.00
2018-06-07T21:36:26.042Z,957.96
2018-06-07T21:38:52.341Z,957.99
2018-06-07T21:41:18.626Z,958.06
2018-06-07T21:43:44.914Z,958.08
2018-06-07T21:46:11.208Z,957.97
2018-06-07T21:48:37.501Z,958.01
2018-06-07T21:51:03.791Z,958.01
2018-06-07T21:53:30.080Z,958.05
2018-06-07T21:55:56.380Z,958.09
2018-06-07T21:58:22.662Z,958.08
2018-06-07T22:00:48.951Z,958.07
2018-06-07T22:03:15.239Z,958.07
2018-06-07T22:05:41.574Z,958.06
2018-06-07T22:08:07.869Z,958.02
2018-06-07T22:10:34.154Z,957.93
2018-06-07T22:13:00.441Z,958.06
2018-06-07T22:15:26.741Z,958.07
2018-06-07T22:17:53.028Z,958.12
2018-06-07T22:20:19.359Z,958.17
2018-06-07T22:22:45.644Z,958.08
2018-06-07T22:25:11.932Z,958.08
2018-06-07T22:27:38.218Z,958.03
2018-06-07T22:30:05.553Z,958.03
2018-06-07T22:32:31.840Z,958.01
2018-06-07T22:34:58.169Z,957.99
2018-06-07T22:37:24.460Z,958.06
2018-06-07T22:39:50.752Z,958.02
2018-06-07T22:42:17.040Z,957.97
2018-06-07T22:44:43.335Z,958.00
2018-06-07T22:47:09.664Z,957.93
2018-06-07T22:49:35.962Z,957.93
2018-06-07T22:52:02.247Z,957.94
2018-06-07T22:54:28.530Z,957.92
2018-06-07T22:56:54.819Z,957.93
2018-06-07T22:59:21.144Z,957.84
2018-06-07T23:01:47.427Z,957.82
2018-06-07T23:04:13.722Z,957.79
2018-06-07T23:06:40.013Z,957.88
2018-06-07T23:09:06.310Z,957.83
2018-06-07T23:11:33.761Z,957.83
2018-06-07T23:14:00.059Z,957.82
2018-06-07T23:16:26.342Z,957.72
2018-06-07T23:18:52.636Z,957.72
2018-06-07T23:21:18.976Z,957.78
2018-06-07T23:23:45.278Z,957.75
2018-06-07T23:26:11.576Z,957.74
2018-06-07T23:28:37.894Z,957.67
2018-06-07T23:31:04.191Z,957.73
2018-06-07T23:33:30.479Z,957.71
2018-06-07T23:35:56.771Z,957.71
2018-06-07T23:38:23.070Z,957.73
2018-06-07T23:40:49.364Z,957.71
2018-06-07T23:43:15.655Z,957.65
2018-06-07T23:45:41.949Z,957.59
2018-06-07T23:48:08.237Z,957.67
2018-06-07T23:50:34.531Z,957.70
2018-06-07T23:53:00.827Z,957.64
2018-06-07T23:55:27.162Z,957.72
2018-06-07T23:57:53.466Z,957.74
